Time;durP1;ratioP1;P1;durP2;ratioP2;P2;SDS_P1;SDS_P2;PMS_P1;PMS_P2;Temp;Humidity;BMP_temperature;BMP_pressure;BME280_temperature;BME280_humidity;BME280_pressure;Samples;Min_cycle;Max_cycle;Signal;HPM_P1;HPM_P2
2023/04/30 00:02:00;;;;;;;15.23;9.35;;;7.80;99.90;;;;;;7293261;32;20136;-54
2023/04/30 00:06:02;;;;;;;13.15;9.40;;;7.80;99.90;;;;;;7293826;32;20237;-55
2023/04/30 00:10:04;;;;;;;15.55;9.63;;;7.80;99.90;;;;;;7305219;32;20120;-54
2023/04/30 00:14:06;;;;;;;14.77;9.50;;;7.70;99.90;;;;;;7292490;32;20175;-55
2023/04/30 00:18:07;;;;;;;14.45;10.57;;;7.70;99.90;;;;;;7298450;32;20111;-54
2023/04/30 00:22:09;;;;;;;17.00;9.40;;;7.60;99.90;;;;;;7301571;32;20711;-55
2023/04/30 00:26:11;;;;;;;12.90;9.27;;;7.70;99.90;;;;;;7299035;32;20132;-57
2023/04/30 00:30:13;;;;;;;15.27;11.30;;;7.60;99.90;;;;;;7297363;32;20644;-55
2023/04/30 00:34:14;;;;;;;14.15;9.88;;;7.60;99.90;;;;;;7299553;32;20214;-54
2023/04/30 00:38:16;;;;;;;19.33;10.02;;;7.60;99.90;;;;;;7300282;32;20603;-54
2023/04/30 00:42:18;;;;;;;14.30;9.70;;;7.70;99.90;;;;;;7303064;32;20251;-55
2023/04/30 00:46:20;;;;;;;13.62;10.50;;;7.70;99.90;;;;;;7294529;32;20221;-55
2023/04/30 00:50:22;;;;;;;17.08;10.10;;;7.60;99.90;;;;;;7296332;32;20133;-55
2023/04/30 00:54:24;;;;;;;15.15;9.98;;;7.50;99.90;;;;;;7295491;32;20447;-54
2023/04/30 00:58:26;;;;;;;14.25;9.73;;;7.60;99.90;;;;;;7302595;32;20117;-54
2023/04/30 01:02:29;;;;;;;18.08;10.30;;;7.60;99.90;;;;;;7297563;32;20109;-54
2023/04/30 01:06:31;;;;;;;17.92;9.88;;;7.60;99.90;;;;;;7294850;32;20619;-55
2023/04/30 01:11:19;;;;;;;17.15;11.12;;;7.50;99.90;;;;;;7293933;32;20116;-55
2023/04/30 01:15:35;;;;;;;13.88;10.35;;;7.40;99.90;;;;;;7267338;32;20219;-54
2023/04/30 01:19:46;;;;;;;13.95;10.57;;;7.40;99.90;;;;;;7296891;32;20374;-54
2023/04/30 01:24:14;;;;;;;18.48;11.12;;;7.30;99.90;;;;;;7296011;32;20603;-54
2023/04/30 01:28:17;;;;;;;;;;;7.30;99.90;;;;;;7303723;32;20318;-54
2023/04/30 01:32:19;;;;;;;18.12;11.38;;;7.20;99.90;;;;;;7297485;32;20408;-54
2023/04/30 01:36:53;;;;;;;17.95;11.90;;;7.20;99.90;;;;;;7303624;32;21395;-55
2023/04/30 01:41:05;;;;;;;18.50;12.55;;;7.20;99.90;;;;;;7302909;32;20263;-55
2023/04/30 01:45:44;;;;;;;16.17;12.25;;;7.20;99.90;;;;;;7302078;32;20431;-54
2023/04/30 01:50:10;;;;;;;16.80;11.82;;;7.20;99.90;;;;;;7302814;32;20133;-54
2023/04/30 01:54:25;;;;;;;18.08;12.25;;;7.20;99.90;;;;;;7308091;32;20145;-54
2023/04/30 01:58:29;;;;;;;17.35;12.25;;;7.10;99.90;;;;;;7297006;32;20143;-55
2023/04/30 02:02:31;;;;;;;17.50;11.32;;;7.10;99.90;;;;;;7296496;32;20187;-55
2023/04/30 02:06:33;;;;;;;21.42;11.30;;;7.00;99.90;;;;;;7300546;32;20199;-56
2023/04/30 02:10:34;;;;;;;20.30;11.70;;;7.00;99.90;;;;;;7302388;32;21632;-54
2023/04/30 02:14:36;;;;;;;14.48;11.15;;;6.90;99.90;;;;;;7296888;32;22294;-55
2023/04/30 02:18:38;;;;;;;16.77;10.77;;;6.70;99.90;;;;;;7292124;32;20128;-54
2023/04/30 02:22:39;;;;;;;15.48;10.30;;;6.60;99.90;;;;;;7300294;32;20143;-56
2023/04/30 02:26:41;;;;;;;15.10;10.48;;;6.50;99.90;;;;;;7298625;32;20215;-54
2023/04/30 02:30:43;;;;;;;14.73;10.35;;;6.40;99.90;;;;;;7299256;32;20103;-54
2023/04/30 02:34:44;;;;;;;16.70;11.18;;;6.30;99.90;;;;;;7294447;32;20304;-57
2023/04/30 02:38:46;;;;;;;14.70;11.32;;;6.20;99.90;;;;;;7296039;32;20294;-54
2023/04/30 02:42:48;;;;;;;14.20;10.18;;;6.30;99.90;;;;;;7296898;32;20142;-56
2023/04/30 02:46:50;;;;;;;14.95;11.20;;;6.10;99.90;;;;;;7293600;32;20742;-54
2023/04/30 02:50:51;;;;;;;19.50;13.32;;;6.10;99.90;;;;;;7298684;32;20198;-55
2023/04/30 02:54:53;;;;;;;19.85;12.98;;;6.20;99.90;;;;;;7300384;32;20103;-54
2023/04/30 02:58:55;;;;;;;19.62;13.13;;;6.30;99.90;;;;;;7300662;32;20212;-54
2023/04/30 03:02:56;;;;;;;16.77;11.77;;;6.30;99.90;;;;;;7295881;32;20487;-55
2023/04/30 03:06:59;;;;;;;15.65;11.32;;;6.20;99.90;;;;;;7294256;32;20158;-54
2023/04/30 03:11:00;;;;;;;16.92;10.85;;;6.10;99.90;;;;;;7297492;32;20103;-54
2023/04/30 03:15:03;;;;;;;14.90;10.88;;;6.00;99.90;;;;;;7302014;32;20123;-54
2023/04/30 03:19:04;;;;;;;14.77;10.60;;;5.80;99.90;;;;;;7305566;32;20195;-54
2023/04/30 03:23:06;;;;;;;14.50;9.73;;;5.70;99.90;;;;;;7300133;32;20489;-54
2023/04/30 03:27:08;;;;;;;12.85;9.90;;;5.60;99.90;;;;;;7293827;32;20114;-54
2023/04/30 03:31:09;;;;;;;18.20;10.52;;;5.50;99.90;;;;;;7303744;32;20771;-55
2023/04/30 03:35:11;;;;;;;16.30;11.00;;;5.30;99.90;;;;;;7302359;32;20768;-53
2023/04/30 03:39:15;;;;;;;15.82;11.43;;;5.20;99.90;;;;;;7303740;32;20583;-54
2023/04/30 03:43:16;;;;;;;16.90;11.32;;;5.10;99.90;;;;;;7298002;32;20180;-54
2023/04/30 03:47:18;;;;;;;22.87;14.27;;;5.20;99.90;;;;;;7300279;32;20107;-54
2023/04/30 03:51:20;;;;;;;19.73;13.77;;;5.40;99.90;;;;;;7293686;32;20092;-54
2023/04/30 03:55:22;;;;;;;20.08;14.32;;;5.50;99.90;;;;;;7296674;32;20269;-55
2023/04/30 03:59:24;;;;;;;17.80;12.50;;;5.60;99.90;;;;;;7294756;32;20108;-54
2023/04/30 04:03:26;;;;;;;23.62;14.87;;;5.50;99.90;;;;;;7298148;32;20236;-54
2023/04/30 04:07:28;;;;;;;21.25;13.45;;;5.50;99.90;;;;;;7297771;32;21682;-55
2023/04/30 04:11:29;;;;;;;16.83;11.15;;;5.50;99.90;;;;;;7301270;32;20103;-54
2023/04/30 04:15:32;;;;;;;17.37;11.80;;;5.40;99.90;;;;;;7295359;32;20103;-54
2023/04/30 04:19:34;;;;;;;17.02;11.82;;;5.30;99.90;;;;;;7295754;32;20257;-55
2023/04/30 04:23:36;;;;;;;17.30;12.27;;;5.20;99.90;;;;;;7296739;32;20092;-54
2023/04/30 04:27:37;;;;;;;18.75;11.23;;;5.20;99.90;;;;;;7305204;32;20179;-54
2023/04/30 04:31:41;;;;;;;16.85;11.48;;;5.00;99.90;;;;;;7299711;32;20127;-54
2023/04/30 04:35:43;;;;;;;17.23;11.77;;;5.00;99.90;;;;;;7298348;32;20130;-55
2023/04/30 04:39:44;;;;;;;16.33;12.00;;;5.00;99.90;;;;;;7295440;32;20267;-54
2023/04/30 04:43:46;;;;;;;18.20;11.68;;;5.00;99.90;;;;;;7295675;32;20235;-55
2023/04/30 04:47:48;;;;;;;21.48;13.32;;;4.90;99.90;;;;;;7298162;32;20522;-54
2023/04/30 04:51:50;;;;;;;18.30;11.93;;;5.00;99.90;;;;;;7291379;32;20118;-55
2023/04/30 04:55:51;;;;;;;15.93;12.10;;;5.10;99.90;;;;;;7304900;32;20335;-56
2023/04/30 04:59:53;;;;;;;20.55;14.63;;;5.40;99.90;;;;;;7296595;32;20154;-55
2023/04/30 05:03:55;;;;;;;19.98;14.75;;;5.80;99.90;;;;;;7297739;32;20217;-54
2023/04/30 05:07:57;;;;;;;21.37;15.10;;;6.10;99.90;;;;;;7300466;32;20178;-55
2023/04/30 05:11:59;;;;;;;21.30;15.70;;;6.30;99.90;;;;;;7303799;32;20145;-56
2023/04/30 05:16:01;;;;;;;22.95;17.15;;;6.40;99.90;;;;;;7307160;32;20118;-57
2023/04/30 05:20:06;;;;;;;27.13;17.65;;;6.50;99.90;;;;;;7297462;32;20710;-55
2023/04/30 05:24:07;;;;;;;24.70;16.98;;;6.50;99.90;;;;;;7302528;32;20122;-55
2023/04/30 05:28:09;;;;;;;27.67;18.05;;;6.70;99.90;;;;;;7307816;32;20222;-56
2023/04/30 05:32:11;;;;;;;26.00;18.20;;;6.70;99.90;;;;;;7302567;32;20130;-55
2023/04/30 05:36:13;;;;;;;23.20;17.73;;;6.80;99.90;;;;;;7301741;32;20103;-55
2023/04/30 05:40:15;;;;;;;21.35;16.30;;;6.90;99.90;;;;;;7309473;32;20672;-55
2023/04/30 05:44:17;;;;;;;21.23;16.23;;;7.00;99.90;;;;;;7308151;32;20163;-56
2023/04/30 05:48:19;;;;;;;22.40;15.40;;;7.10;99.90;;;;;;7317951;32;20759;-57
2023/04/30 05:52:20;;;;;;;21.50;15.98;;;7.20;99.90;;;;;;7307410;32;20115;-57
2023/04/30 05:56:23;;;;;;;25.58;16.62;;;7.20;99.90;;;;;;7311201;32;20108;-56
2023/04/30 06:00:25;;;;;;;18.98;14.63;;;7.30;99.90;;;;;;7310573;32;20232;-57
2023/04/30 06:04:27;;;;;;;16.98;13.85;;;7.40;99.90;;;;;;7303761;32;20114;-58
2023/04/30 06:08:29;;;;;;;21.48;16.02;;;7.50;99.90;;;;;;7308292;32;20233;-57
2023/04/30 06:12:31;;;;;;;19.52;14.15;;;7.50;99.90;;;;;;7300387;32;20262;-57
2023/04/30 06:16:33;;;;;;;18.83;13.80;;;7.70;99.90;;;;;;7305928;32;20157;-56
2023/04/30 06:20:34;;;;;;;22.67;13.62;;;7.80;99.90;;;;;;7302353;32;20253;-56
2023/04/30 06:24:36;;;;;;;17.25;12.30;;;8.10;99.90;;;;;;7305210;32;20217;-55
2023/04/30 06:28:38;;;;;;;17.42;11.68;;;8.40;99.90;;;;;;7300192;32;20558;-56
2023/04/30 06:32:40;;;;;;;16.40;11.77;;;8.50;99.90;;;;;;7305935;32;20135;-56
2023/04/30 06:36:42;;;;;;;18.75;11.23;;;8.70;99.90;;;;;;7306102;32;20226;-56
2023/04/30 06:40:43;;;;;;;14.82;10.65;;;8.80;99.90;;;;;;7305037;32;20181;-56
2023/04/30 06:44:46;;;;;;;14.35;10.82;;;9.00;99.90;;;;;;7305335;32;20259;-56
2023/04/30 06:48:47;;;;;;;14.70;10.05;;;9.10;99.90;;;;;;7311818;32;20154;-57
2023/04/30 06:52:49;;;;;;;14.50;9.23;;;9.30;99.90;;;;;;7304232;32;20644;-57
2023/04/30 06:56:51;;;;;;;13.77;10.57;;;9.60;99.90;;;;;;7308121;32;20258;-57
2023/04/30 07:00:53;;;;;;;13.23;10.02;;;9.70;99.90;;;;;;7306042;32;20175;-57
2023/04/30 07:04:54;;;;;;;13.15;9.70;;;9.90;99.90;;;;;;7312268;32;20621;-57
2023/04/30 07:08:56;;;;;;;12.88;8.85;;;10.20;99.90;;;;;;7297284;32;20108;-57
2023/04/30 07:12:58;;;;;;;12.23;8.80;;;10.90;99.90;;;;;;7306234;32;20162;-57
2023/04/30 07:17:00;;;;;;;9.65;8.00;;;11.10;99.90;;;;;;7299841;32;20195;-56
2023/04/30 07:21:02;;;;;;;9.68;8.50;;;11.20;99.90;;;;;;7296001;32;20137;-57
2023/04/30 07:25:05;;;;;;;10.20;7.55;;;11.20;99.90;;;;;;7303094;32;20187;-57
2023/04/30 07:29:06;;;;;;;10.85;8.90;;;11.50;99.90;;;;;;7306870;32;20409;-57
2023/04/30 07:33:08;;;;;;;11.48;8.05;;;11.50;99.90;;;;;;7308517;32;20226;-56
2023/04/30 07:37:10;;;;;;;10.18;7.97;;;11.50;99.90;;;;;;7304462;32;20140;-56
2023/04/30 07:41:12;;;;;;;10.65;7.95;;;11.50;99.90;;;;;;7306963;32;20104;-57
2023/04/30 07:45:14;;;;;;;13.00;7.57;;;11.60;99.90;;;;;;7302531;32;20122;-57
2023/04/30 07:49:15;;;;;;;10.57;7.80;;;11.70;99.90;;;;;;7303014;32;20246;-58
2023/04/30 07:53:17;;;;;;;10.70;6.87;;;11.80;99.90;;;;;;7299716;32;20318;-56
2023/04/30 07:57:19;;;;;;;11.55;7.03;;;12.00;99.90;;;;;;7308816;32;20175;-57
2023/04/30 08:01:21;;;;;;;10.68;6.97;;;11.90;99.90;;;;;;7301773;32;20130;-58
2023/04/30 08:05:22;;;;;;;9.63;6.30;;;12.10;99.90;;;;;;7305174;32;20157;-57
2023/04/30 08:09:24;;;;;;;7.85;5.62;;;12.20;99.90;;;;;;7301903;32;20179;-60
2023/04/30 08:13:26;;;;;;;7.00;5.32;;;12.60;99.90;;;;;;7302747;32;20726;-61
2023/04/30 08:17:27;;;;;;;6.57;4.80;;;12.80;99.90;;;;;;7309843;32;20104;-57
2023/04/30 08:21:30;;;;;;;9.48;5.15;;;13.10;99.90;;;;;;7306449;32;20226;-57
2023/04/30 08:25:32;;;;;;;6.68;5.72;;;13.40;99.90;;;;;;7301315;32;20451;-57
2023/04/30 08:29:33;;;;;;;8.05;6.32;;;13.60;99.90;;;;;;7306211;32;20273;-57
2023/04/30 08:33:35;;;;;;;8.68;6.40;;;13.80;99.90;;;;;;7303598;32;20325;-59
2023/04/30 08:37:37;;;;;;;7.57;5.87;;;14.50;99.90;;;;;;7309387;32;20179;-57
2023/04/30 08:41:41;;;;;;;11.23;6.57;;;14.70;99.90;;;;;;7306334;32;20154;-57
2023/04/30 08:45:44;;;;;;;7.15;5.45;;;15.20;99.90;;;;;;7308696;32;20218;-57
2023/04/30 08:49:46;;;;;;;8.02;4.20;;;16.00;99.90;;;;;;7312132;32;20202;-56
2023/04/30 08:53:49;;;;;;;5.10;3.20;;;16.80;99.90;;;;;;7305784;32;20123;-57
2023/04/30 08:57:51;;;;;;;6.18;3.92;;;18.30;99.90;;;;;;7315541;32;20175;-58
2023/04/30 09:01:52;;;;;;;4.30;2.97;;;19.10;99.90;;;;;;7309105;32;20095;-57
2023/04/30 09:05:55;;;;;;;4.10;2.70;;;19.50;99.90;;;;;;7304951;32;20237;-58
2023/04/30 09:09:59;;;;;;;3.53;2.55;;;20.20;99.90;;;;;;7307243;32;20115;-57
2023/04/30 09:14:01;;;;;;;3.45;3.15;;;20.30;99.90;;;;;;7307260;32;20565;-58
2023/04/30 09:18:17;;;;;;;4.28;3.20;;;20.50;96.20;;;;;;7313070;32;20157;-57
2023/04/30 09:22:22;;;;;;;4.53;3.70;;;20.50;96.60;;;;;;7303990;32;20187;-57
2023/04/30 09:26:31;;;;;;;4.07;3.67;;;21.30;98.10;;;;;;7306725;32;20107;-57
2023/04/30 09:30:33;;;;;;;3.90;3.50;;;20.90;96.50;;;;;;7307034;32;20104;-57
2023/04/30 09:34:35;;;;;;;4.03;3.00;;;18.60;99.90;;;;;;7312262;32;20263;-57
2023/04/30 09:38:38;;;;;;;3.60;2.72;;;18.70;99.10;;;;;;7311296;32;20204;-56
2023/04/30 09:42:39;;;;;;;3.72;2.53;;;19.00;98.90;;;;;;7316980;32;20207;-57
2023/04/30 09:46:43;;;;;;;3.50;2.67;;;18.10;99.90;;;;;;7307598;32;20125;-54
2023/04/30 09:50:46;;;;;;;3.62;2.37;;;19.10;99.90;;;;;;7307500;32;20430;-54
2023/04/30 09:54:48;;;;;;;2.92;1.75;;;19.30;99.90;;;;;;7309098;32;20741;-57
2023/04/30 09:58:52;;;;;;;3.45;2.25;;;19.90;99.90;;;;;;7308656;32;20481;-57
2023/04/30 10:02:54;;;;;;;4.37;2.92;;;20.30;99.90;;;;;;7302799;32;20241;-55
2023/04/30 10:06:58;;;;;;;3.58;2.65;;;20.00;99.90;;;;;;7307161;32;20323;-55
2023/04/30 10:11:06;;;;;;;4.25;2.40;;;19.40;98.20;;;;;;7306044;32;20249;-55
2023/04/30 10:15:16;;;;;;;;;;;18.10;99.80;;;;;;7309168;32;20453;-54
2023/04/30 10:19:23;;;;;;;4.93;2.35;;;18.90;99.90;;;;;;7304913;32;20107;-56
2023/04/30 10:23:28;;;;;;;3.65;2.35;;;19.50;98.60;;;;;;7309967;32;20161;-55
2023/04/30 10:27:29;;;;;;;3.30;2.20;;;20.00;97.50;;;;;;7308603;32;20583;-56
2023/04/30 10:31:32;;;;;;;4.95;2.20;;;19.80;96.90;;;;;;7308250;32;20165;-56
2023/04/30 10:35:57;;;;;;;3.87;2.28;;;20.10;97.70;;;;;;7303740;32;20130;-56
2023/04/30 10:40:01;;;;;;;5.22;2.47;;;19.90;99.10;;;;;;7309557;32;20227;-56
2023/04/30 10:44:04;;;;;;;3.35;1.98;;;19.90;98.00;;;;;;7310180;32;20165;-56
2023/04/30 10:48:06;;;;;;;2.33;2.00;;;19.70;95.80;;;;;;7303567;32;20100;-56
2023/04/30 10:52:10;;;;;;;3.00;1.50;;;19.60;98.40;;;;;;7310418;32;20207;-56
2023/04/30 10:56:12;;;;;;;2.95;1.80;;;20.10;96.30;;;;;;7316713;32;20179;-56
2023/04/30 11:00:18;;;;;;;4.95;2.47;;;19.70;97.50;;;;;;7314671;32;20210;-56
2023/04/30 11:04:20;;;;;;;4.32;2.55;;;19.00;96.80;;;;;;7304403;32;20198;-56
2023/04/30 11:08:51;;;;;;;4.87;2.85;;;18.70;98.50;;;;;;7303107;32;20135;-56
2023/04/30 11:12:54;;;;;;;5.18;2.20;;;19.10;97.10;;;;;;7303011;32;20648;-56
2023/04/30 11:16:59;;;;;;;2.87;1.30;;;19.30;97.40;;;;;;7300735;32;20249;-56
2023/04/30 11:21:01;;;;;;;1.73;1.20;;;18.80;97.10;;;;;;7303807;32;20099;-56
2023/04/30 11:25:11;;;;;;;2.90;1.45;;;18.90;93.90;;;;;;7299820;32;20182;-60
2023/04/30 11:29:14;;;;;;;2.90;2.50;;;19.20;94.40;;;;;;7301709;32;20231;-63
2023/04/30 11:33:17;;;;;;;2.53;1.92;;;19.00;94.80;;;;;;7309697;32;20328;-57
2023/04/30 11:37:31;;;;;;;2.37;1.40;;;19.20;96.40;;;;;;7302558;32;20123;-56
2023/04/30 11:41:40;;;;;;;1.77;1.48;;;19.00;94.60;;;;;;7302135;32;20171;-57
2023/04/30 11:45:42;;;;;;;2.75;1.70;;;19.70;92.40;;;;;;7307146;32;20234;-56
2023/04/30 11:49:44;;;;;;;2.67;2.03;;;20.50;88.70;;;;;;7297209;32;20116;-57
2023/04/30 11:53:47;;;;;;;1.90;1.70;;;20.00;91.20;;;;;;7301298;32;20193;-56
2023/04/30 11:57:53;;;;;;;3.35;1.90;;;21.00;89.80;;;;;;7300877;32;20122;-56
2023/04/30 12:01:55;;;;;;;1.70;1.60;;;20.80;85.00;;;;;;7307219;32;20153;-56
2023/04/30 12:05:56;;;;;;;107.00;65.90;;;20.30;90.30;;;;;;7303535;32;20222;-56
2023/04/30 12:09:58;;;;;;;4.53;3.70;;;20.20;89.60;;;;;;7305521;32;20096;-56
2023/04/30 12:14:13;;;;;;;4.65;3.20;;;21.40;85.00;;;;;;7315364;32;20118;-56
2023/04/30 12:18:15;;;;;;;33.97;26.45;;;21.10;86.00;;;;;;7298460;32;20100;-56
2023/04/30 12:22:16;;;;;;;3.85;1.70;;;22.10;80.90;;;;;;7307587;32;20533;-57
2023/04/30 12:26:18;;;;;;;2.83;2.20;;;22.60;79.50;;;;;;7302136;32;20100;-57
2023/04/30 12:30:22;;;;;;;2.25;1.10;;;23.70;76.60;;;;;;7299381;32;20119;-57
2023/04/30 12:34:25;;;;;;;2.85;1.10;;;24.70;70.90;;;;;;7301869;32;20210;-56
2023/04/30 12:38:27;;;;;;;0.95;0.80;;;24.20;66.10;;;;;;7305568;32;20239;-57
2023/04/30 12:42:35;;;;;;;1.37;0.70;;;24.70;65.20;;;;;;7305395;32;20318;-57
2023/04/30 12:46:37;;;;;;;0.90;0.73;;;24.80;63.00;;;;;;7300367;32;20633;-57
2023/04/30 12:50:39;;;;;;;3.15;0.90;;;25.30;62.70;;;;;;7305209;32;20258;-57
2023/04/30 12:54:42;;;;;;;3.03;1.00;;;23.70;62.80;;;;;;7308185;32;20126;-57
2023/04/30 12:58:49;;;;;;;1.45;0.70;;;22.90;71.40;;;;;;7324311;32;20110;-57
2023/04/30 13:02:51;;;;;;;3.00;0.60;;;22.90;69.80;;;;;;7312470;32;20200;-57
2023/04/30 13:06:53;;;;;;;2.50;0.75;;;23.80;67.40;;;;;;7307015;32;20296;-57
2023/04/30 13:10:55;;;;;;;0.50;0.50;;;22.20;68.90;;;;;;7306912;32;20123;-57
2023/04/30 13:14:56;;;;;;;1.70;0.73;;;20.70;69.10;;;;;;7314160;32;20215;-57
2023/04/30 13:18:58;;;;;;;1.08;0.60;;;20.70;75.40;;;;;;7310264;32;20130;-57
2023/04/30 13:23:00;;;;;;;1.05;0.80;;;21.10;73.90;;;;;;7308003;32;20122;-57
2023/04/30 13:27:02;;;;;;;2.53;0.90;;;21.50;70.40;;;;;;7311032;32;20171;-57
2023/04/30 13:31:05;;;;;;;1.23;0.80;;;21.20;70.40;;;;;;7309496;32;20254;-56
2023/04/30 13:35:07;;;;;;;1.48;0.90;;;22.00;69.40;;;;;;7313874;32;20903;-56
2023/04/30 13:39:14;;;;;;;2.17;1.20;;;20.90;71.70;;;;;;7297727;32;20111;-56
2023/04/30 13:43:16;;;;;;;1.42;1.00;;;21.20;72.60;;;;;;7310766;32;20187;-56
2023/04/30 13:47:20;;;;;;;10.75;7.70;;;22.00;68.30;;;;;;7308465;32;20264;-57
2023/04/30 13:51:22;;;;;;;2.78;1.90;;;22.30;68.90;;;;;;7318848;32;20190;-57
2023/04/30 13:55:23;;;;;;;1.45;0.88;;;22.50;69.10;;;;;;7305950;32;20549;-56
2023/04/30 13:59:25;;;;;;;1.37;0.80;;;22.00;69.40;;;;;;7302966;32;20582;-56
2023/04/30 14:03:27;;;;;;;1.55;0.70;;;22.20;65.90;;;;;;7314938;32;20191;-56
2023/04/30 14:07:29;;;;;;;1.62;0.80;;;22.30;66.20;;;;;;7305957;32;20947;-57
2023/04/30 14:11:31;;;;;;;3.10;0.65;;;21.50;69.40;;;;;;7295591;32;20258;-57
2023/04/30 14:15:34;;;;;;;2.90;1.00;;;21.50;68.10;;;;;;7296597;32;20137;-56
2023/04/30 14:19:36;;;;;;;2.22;0.70;;;21.80;67.40;;;;;;7301485;32;20103;-57
2023/04/30 14:23:38;;;;;;;2.20;0.73;;;22.50;67.20;;;;;;7298336;32;20454;-56
2023/04/30 14:27:40;;;;;;;3.45;0.70;;;22.80;64.60;;;;;;7298159;32;20304;-54
2023/04/30 14:31:42;;;;;;;1.50;0.75;;;22.90;64.90;;;;;;7299679;32;20210;-57
2023/04/30 14:35:44;;;;;;;2.37;0.77;;;23.40;64.50;;;;;;7296379;32;20901;-56
2023/04/30 14:39:46;;;;;;;1.15;0.77;;;22.20;64.20;;;;;;7306987;32;20170;-56
2023/04/30 14:43:48;;;;;;;2.28;1.10;;;21.40;67.00;;;;;;7305267;32;20100;-56
2023/04/30 14:47:50;;;;;;;1.10;0.60;;;21.20;68.20;;;;;;7307870;32;20215;-56
2023/04/30 14:51:51;;;;;;;1.08;0.62;;;21.00;68.90;;;;;;7303172;32;20280;-56
2023/04/30 14:55:53;;;;;;;1.30;0.57;;;21.30;69.00;;;;;;7307267;32;20103;-56
2023/04/30 14:59:56;;;;;;;1.73;0.70;;;20.30;71.50;;;;;;7310233;32;20286;-56
2023/04/30 15:03:59;;;;;;;2.12;0.80;;;20.10;72.90;;;;;;7304210;32;20195;-56
2023/04/30 15:08:00;;;;;;;1.52;0.70;;;20.00;72.50;;;;;;7303150;32;20122;-56
2023/04/30 15:12:02;;;;;;;1.00;0.50;;;19.30;75.30;;;;;;7307074;32;20108;-57
2023/04/30 15:16:05;;;;;;;1.23;0.82;;;19.00;76.40;;;;;;7303135;32;20103;-56
2023/04/30 15:20:07;;;;;;;3.10;0.60;;;18.40;77.50;;;;;;7302168;32;20200;-56
2023/04/30 15:24:09;;;;;;;2.37;0.80;;;17.90;82.80;;;;;;7309313;32;20231;-56
2023/04/30 15:28:11;;;;;;;1.02;0.60;;;17.90;82.00;;;;;;7305662;32;21001;-56
2023/04/30 15:32:13;;;;;;;1.83;0.90;;;17.70;82.00;;;;;;7301657;32;20302;-55
2023/04/30 15:36:15;;;;;;;2.55;0.70;;;17.70;84.80;;;;;;7308669;32;20092;-55
2023/04/30 15:40:16;;;;;;;1.90;0.82;;;17.70;84.50;;;;;;7307683;32;20112;-55
2023/04/30 15:44:18;;;;;;;1.52;1.00;;;17.60;84.00;;;;;;7306626;32;20104;-54
2023/04/30 15:48:20;;;;;;;1.23;0.70;;;17.30;87.00;;;;;;7305438;32;20723;-56
2023/04/30 15:52:21;;;;;;;1.37;0.50;;;17.50;86.90;;;;;;7300657;32;20187;-56
2023/04/30 15:56:25;;;;;;;3.28;0.52;;;17.50;86.40;;;;;;7301520;32;20188;-56
2023/04/30 16:00:27;;;;;;;1.27;0.50;;;17.50;85.70;;;;;;7306913;32;20806;-56
2023/04/30 16:04:29;;;;;;;1.27;0.50;;;17.30;85.40;;;;;;7301244;32;20161;-56
2023/04/30 16:08:31;;;;;;;1.67;0.60;;;17.30;88.90;;;;;;7299501;32;20107;-55
2023/04/30 16:12:33;;;;;;;2.83;0.77;;;17.30;87.00;;;;;;7299366;32;20112;-55
2023/04/30 16:16:35;;;;;;;1.90;0.70;;;17.40;86.70;;;;;;7305399;32;20149;-54
2023/04/30 16:20:37;;;;;;;1.70;0.70;;;17.20;87.30;;;;;;7303690;32;20206;-56
2023/04/30 16:24:39;;;;;;;1.87;0.70;;;17.40;86.70;;;;;;7305001;32;20235;-56
2023/04/30 16:28:41;;;;;;;1.30;0.77;;;17.20;86.50;;;;;;7309613;32;22015;-56
2023/04/30 16:32:43;;;;;;;1.48;0.47;;;17.00;86.80;;;;;;7307169;32;20099;-56
2023/04/30 16:36:45;;;;;;;1.85;0.52;;;16.90;88.70;;;;;;7308072;32;20208;-59
2023/04/30 16:40:47;;;;;;;2.10;0.57;;;16.70;89.40;;;;;;7301372;32;20100;-57
2023/04/30 16:44:49;;;;;;;1.77;0.80;;;16.70;90.90;;;;;;7296577;32;20202;-56
2023/04/30 16:48:50;;;;;;;2.55;0.90;;;16.70;90.70;;;;;;7309465;32;20099;-56
2023/04/30 16:52:52;;;;;;;1.12;0.43;;;16.60;90.80;;;;;;7294846;32;20597;-56
2023/04/30 16:56:54;;;;;;;1.83;0.50;;;16.50;90.80;;;;;;7307452;32;20494;-57
2023/04/30 17:00:56;;;;;;;3.35;0.75;;;16.50;91.70;;;;;;7311433;32;20100;-56
2023/04/30 17:04:58;;;;;;;2.40;0.80;;;16.50;91.10;;;;;;7312444;32;20194;-56
2023/04/30 17:08:59;;;;;;;1.45;0.52;;;16.40;91.70;;;;;;7311250;32;20303;-56
2023/04/30 17:13:04;;;;;;;1.42;0.73;;;16.40;91.70;;;;;;7316922;32;20785;-56
2023/04/30 17:17:05;;;;;;;1.62;0.60;;;16.10;93.10;;;;;;7310286;32;20167;-56
2023/04/30 17:21:08;;;;;;;1.05;0.70;;;16.10;93.10;;;;;;7304467;32;20679;-57
2023/04/30 17:25:10;;;;;;;2.17;0.52;;;16.00;93.20;;;;;;7305857;32;20123;-57
2023/04/30 17:29:12;;;;;;;1.55;0.60;;;15.90;94.20;;;;;;7309048;32;20713;-56
2023/04/30 17:33:14;;;;;;;3.47;1.00;;;15.90;94.20;;;;;;7303002;32;20150;-56
2023/04/30 17:37:16;;;;;;;3.20;1.10;;;15.90;95.00;;;;;;7306259;32;20187;-57
2023/04/30 17:41:18;;;;;;;1.77;0.75;;;15.80;94.90;;;;;;7311019;32;20617;-57
2023/04/30 17:45:20;;;;;;;3.50;1.30;;;15.70;96.00;;;;;;7289555;32;20111;-58
2023/04/30 17:49:24;;;;;;;6.22;1.60;;;15.60;96.50;;;;;;7298767;32;20167;-57
2023/04/30 17:53:26;;;;;;;2.35;0.80;;;15.50;97.10;;;;;;7307230;32;20129;-58
2023/04/30 17:57:28;;;;;;;3.33;1.00;;;15.40;97.70;;;;;;7307056;32;20582;-58
2023/04/30 18:01:30;;;;;;;1.95;0.80;;;15.30;97.40;;;;;;7308254;32;20386;-58
2023/04/30 18:05:33;;;;;;;2.00;0.65;;;15.20;98.80;;;;;;7305723;32;20103;-57
2023/04/30 18:09:36;;;;;;;1.30;0.50;;;15.10;99.10;;;;;;7305606;32;20158;-56
2023/04/30 18:13:38;;;;;;;2.53;0.70;;;15.00;99.30;;;;;;7308509;32;20217;-57
2023/04/30 18:17:41;;;;;;;4.70;0.75;;;14.90;99.90;;;;;;7305320;32;20821;-57
2023/04/30 18:21:43;;;;;;;2.05;0.68;;;14.80;99.90;;;;;;7303853;32;20103;-57
2023/04/30 18:25:44;;;;;;;1.12;0.60;;;14.70;99.90;;;;;;7300698;32;20111;-57
2023/04/30 18:29:47;;;;;;;3.83;1.02;;;14.60;99.90;;;;;;7301486;32;20170;-57
2023/04/30 18:33:49;;;;;;;2.33;0.82;;;14.50;99.90;;;;;;7304938;32;20099;-57
2023/04/30 18:37:51;;;;;;;2.92;0.90;;;14.40;99.90;;;;;;7315711;32;20643;-57
2023/04/30 18:41:52;;;;;;;4.10;1.00;;;14.30;99.90;;;;;;7304975;32;20793;-57
2023/04/30 18:45:54;;;;;;;3.08;0.88;;;14.20;99.90;;;;;;7302709;32;20169;-58
2023/04/30 18:49:56;;;;;;;2.45;0.93;;;14.00;99.90;;;;;;7308235;32;20157;-57
2023/04/30 18:53:58;;;;;;;4.50;0.80;;;14.00;99.90;;;;;;7307825;32;20621;-56
2023/04/30 18:58:00;;;;;;;3.83;1.45;;;13.80;99.90;;;;;;7303194;32;20095;-57
2023/04/30 19:02:01;;;;;;;2.45;1.10;;;13.70;99.90;;;;;;7303231;32;20127;-57
2023/04/30 19:06:03;;;;;;;2.67;0.90;;;13.70;99.90;;;;;;7298281;32;20210;-56
2023/04/30 19:10:06;;;;;;;2.17;0.65;;;13.60;99.90;;;;;;7303567;32;20511;-57
2023/04/30 19:14:07;;;;;;;2.50;0.70;;;13.50;99.90;;;;;;7303514;32;20961;-56
2023/04/30 19:18:11;;;;;;;4.32;0.90;;;13.50;99.90;;;;;;7304646;32;20497;-56
2023/04/30 19:22:13;;;;;;;3.60;1.23;;;13.40;99.90;;;;;;7307108;32;20100;-56
2023/04/30 19:26:15;;;;;;;5.45;1.40;;;13.30;99.90;;;;;;7310225;32;20306;-56
2023/04/30 19:30:17;;;;;;;4.90;1.10;;;13.30;99.90;;;;;;7303500;32;20205;-57
2023/04/30 19:34:18;;;;;;;5.20;0.88;;;13.10;99.90;;;;;;7317419;32;20205;-57
2023/04/30 19:38:20;;;;;;;4.18;1.05;;;13.00;99.90;;;;;;7306487;32;20162;-55
2023/04/30 19:42:22;;;;;;;6.03;1.05;;;12.90;99.90;;;;;;7305968;32;20135;-55
2023/04/30 19:46:24;;;;;;;4.07;0.93;;;12.80;99.90;;;;;;7313032;32;20162;-56
2023/04/30 19:50:26;;;;;;;2.60;1.05;;;12.60;99.90;;;;;;7307480;32;20130;-56
2023/04/30 19:54:27;;;;;;;3.95;1.20;;;12.60;99.90;;;;;;7299376;32;20207;-55
2023/04/30 19:58:29;;;;;;;4.82;1.23;;;12.50;99.90;;;;;;7306742;32;20518;-55
2023/04/30 20:02:31;;;;;;;3.33;1.40;;;12.40;99.90;;;;;;7309739;32;20171;-55
2023/04/30 20:06:33;;;;;;;4.55;1.52;;;12.30;99.90;;;;;;7301345;32;20123;-55
2023/04/30 20:10:36;;;;;;;4.65;1.50;;;12.20;99.90;;;;;;7305282;32;20218;-56
2023/04/30 20:14:38;;;;;;;5.37;1.58;;;12.00;99.90;;;;;;7302032;32;20217;-55
2023/04/30 20:18:40;;;;;;;3.87;1.48;;;12.00;99.90;;;;;;7305556;32;20170;-55
2023/04/30 20:22:42;;;;;;;3.10;1.45;;;12.00;99.90;;;;;;7300539;32;20134;-55
2023/04/30 20:26:44;;;;;;;5.00;1.75;;;11.90;99.90;;;;;;7299654;32;20170;-55
2023/04/30 20:30:46;;;;;;;5.15;1.62;;;11.90;99.90;;;;;;7306309;32;20255;-55
2023/04/30 20:34:48;;;;;;;4.90;1.80;;;11.90;99.90;;;;;;7304990;32;20095;-55
2023/04/30 20:38:53;;;;;;;4.20;1.60;;;11.80;99.90;;;;;;7306505;32;20576;-55
2023/04/30 20:42:54;;;;;;;4.90;1.67;;;11.80;99.90;;;;;;7301150;32;20438;-55
2023/04/30 20:46:56;;;;;;;4.62;1.92;;;11.80;99.90;;;;;;7307650;32;20150;-55
2023/04/30 20:50:58;;;;;;;5.10;1.80;;;11.70;99.90;;;;;;7307606;32;20216;-55
2023/04/30 20:54:59;;;;;;;4.10;1.65;;;11.80;99.90;;;;;;7314137;32;20454;-55
2023/04/30 20:59:03;;;;;;;5.55;1.80;;;11.70;99.90;;;;;;7304764;32;20162;-55